sensor_id;sensor_type;location;lat;lon;timestamp;temperature;humidity
35565;DHT22;21668;44.784;10.336;2022-10-13T08:25:27;16.60;99.90
35565;DHT22;21668;44.784;10.336;2022-10-13T08:28:31;16.70;99.90
35565;DHT22;21668;44.784;10.336;2022-10-13T08:31:36;16.80;99.90
35565;DHT22;21668;44.784;10.336;2022-10-13T08:34:48;16.80;99.90
35565;DHT22;21668;44.784;10.336;2022-10-13T08:37:52;16.80;99.90
35565;DHT22;21668;44.784;10.336;2022-10-13T08:40:57;16.90;99.90
35565;DHT22;21668;44.784;10.336;2022-10-13T08:44:06;16.90;99.90
35565;DHT22;21668;44.784;10.336;2022-10-13T08:47:19;17.00;99.90
35565;DHT22;21668;44.784;10.336;2022-10-13T08:50:50;17.10;99.90
35565;DHT22;21668;44.784;10.336;2022-10-13T08:53:55;17.10;99.90
35565;DHT22;21668;44.784;10.336;2022-10-13T08:57:00;17.30;99.90
35565;DHT22;21668;44.784;10.336;2022-10-13T09:00:09;17.40;99.90
35565;DHT22;21668;44.784;10.336;2022-10-13T09:03:24;17.40;99.90
35565;DHT22;21668;44.784;10.336;2022-10-13T09:06:47;17.50;99.90
35565;DHT22;21668;44.784;10.336;2022-10-13T09:09:56;17.70;99.90
35565;DHT22;21668;44.784;10.336;2022-10-13T09:13:04;17.80;99.90
35565;DHT22;21668;44.784;10.336;2022-10-13T09:16:09;17.90;99.90
35565;DHT22;21668;44.784;10.336;2022-10-13T09:19:30;17.90;99.90
35565;DHT22;21668;44.784;10.336;2022-10-13T09:22:42;18.00;99.90
35565;DHT22;21668;44.784;10.336;2022-10-13T09:25:50;18.00;99.90
35565;DHT22;21668;44.784;10.336;2022-10-13T09:28:54;18.10;99.90
35565;DHT22;21668;44.784;10.336;2022-10-13T09:32:34;18.20;99.90
35565;DHT22;21668;44.784;10.336;2022-10-13T09:39:15;18.50;99.90
35565;DHT22;21668;44.784;10.336;2022-10-13T09:42:29;18.60;99.90
35565;DHT22;21668;44.784;10.336;2022-10-13T09:45:41;18.80;99.90
35565;DHT22;21668;44.784;10.336;2022-10-13T09:48:54;19.00;99.90
35565;DHT22;21668;44.784;10.336;2022-10-13T09:52:35;19.20;99.90
35565;DHT22;21668;44.784;10.336;2022-10-13T09:55:40;19.20;99.90
35565;DHT22;21668;44.784;10.336;2022-10-13T10:02:31;19.40;99.90
35565;DHT22;21668;44.784;10.336;2022-10-13T10:06:04;19.40;99.90
35565;DHT22;21668;44.784;10.336;2022-10-13T10:09:36;19.70;99.90
35565;DHT22;21668;44.784;10.336;2022-10-13T10:12:46;19.70;99.90
35565;DHT22;21668;44.784;10.336;2022-10-13T10:16:09;19.90;99.90
35565;DHT22;21668;44.784;10.336;2022-10-13T10:23:47;20.10;99.90
35565;DHT22;21668;44.784;10.336;2022-10-13T10:27:47;20.10;99.90
35565;DHT22;21668;44.784;10.336;2022-10-13T10:34:36;20.60;99.90
35565;DHT22;21668;44.784;10.336;2022-10-13T10:41:38;21.00;99.90
35565;DHT22;21668;44.784;10.336;2022-10-13T10:44:46;21.30;99.90
35565;DHT22;21668;44.784;10.336;2022-10-13T10:48:00;21.70;99.90
35565;DHT22;21668;44.784;10.336;2022-10-13T10:51:07;21.90;99.90
35565;DHT22;21668;44.784;10.336;2022-10-13T10:54:54;21.90;99.90
35565;DHT22;21668;44.784;10.336;2022-10-13T10:58:10;21.90;99.90
35565;DHT22;21668;44.784;10.336;2022-10-13T11:04:40;22.00;99.90
35565;DHT22;21668;44.784;10.336;2022-10-13T11:14:29;22.20;99.90
35565;DHT22;21668;44.784;10.336;2022-10-13T11:17:35;22.20;99.90
35565;DHT22;21668;44.784;10.336;2022-10-13T11:23:49;22.00;99.90
35565;DHT22;21668;44.784;10.336;2022-10-13T11:27:17;22.10;99.90
35565;DHT22;21668;44.784;10.336;2022-10-13T11:36:55;22.10;99.90
35565;DHT22;21668;44.784;10.336;2022-10-13T11:50:35;22.10;99.90
35565;DHT22;21668;44.784;10.336;2022-10-13T11:57:24;21.90;99.90
35565;DHT22;21668;44.784;10.336;2022-10-13T12:00:28;22.00;99.90
35565;DHT22;21668;44.784;10.336;2022-10-13T12:03:38;21.90;99.90
35565;DHT22;21668;44.784;10.336;2022-10-13T12:06:54;21.90;99.90
35565;DHT22;21668;44.784;10.336;2022-10-13T12:09:59;21.90;99.90
35565;DHT22;21668;44.784;10.336;2022-10-13T12:13:25;21.90;99.90
35565;DHT22;21668;44.784;10.336;2022-10-13T12:16:30;21.80;99.90
35565;DHT22;21668;44.784;10.336;2022-10-13T12:19:39;21.80;99.90
35565;DHT22;21668;44.784;10.336;2022-10-13T12:22:47;21.80;99.90
35565;DHT22;21668;44.784;10.336;2022-10-13T12:25:52;22.00;99.90
35565;DHT22;21668;44.784;10.336;2022-10-13T12:29:02;22.00;99.90
35565;DHT22;21668;44.784;10.336;2022-10-13T12:32:25;22.20;99.90
35565;DHT22;21668;44.784;10.336;2022-10-13T12:35:32;22.30;99.90
35565;DHT22;21668;44.784;10.336;2022-10-13T12:38:44;22.20;99.90
35565;DHT22;21668;44.784;10.336;2022-10-13T12:41:54;22.20;99.90
35565;DHT22;21668;44.784;10.336;2022-10-13T12:45:00;22.10;99.90
35565;DHT22;21668;44.784;10.336;2022-10-13T12:48:04;22.30;99.90
35565;DHT22;21668;44.784;10.336;2022-10-13T12:51:25;22.50;99.90
35565;DHT22;21668;44.784;10.336;2022-10-13T12:54:34;22.40;99.90
35565;DHT22;21668;44.784;10.336;2022-10-13T12:57:38;22.40;99.90
35565;DHT22;21668;44.784;10.336;2022-10-13T13:00:59;22.50;99.90
35565;DHT22;21668;44.784;10.336;2022-10-13T13:07:27;22.50;99.90
35565;DHT22;21668;44.784;10.336;2022-10-13T13:10:31;22.70;99.90
35565;DHT22;21668;44.784;10.336;2022-10-13T13:13:40;22.70;99.90
35565;DHT22;21668;44.784;10.336;2022-10-13T13:17:11;22.70;99.90
35565;DHT22;21668;44.784;10.336;2022-10-13T13:20:29;22.70;99.90
35565;DHT22;21668;44.784;10.336;2022-10-13T13:23:33;22.70;99.90
35565;DHT22;21668;44.784;10.336;2022-10-13T13:26:40;22.70;99.90
35565;DHT22;21668;44.784;10.336;2022-10-13T13:29:48;22.80;99.90
35565;DHT22;21668;44.784;10.336;2022-10-13T13:32:52;22.70;99.90
35565;DHT22;21668;44.784;10.336;2022-10-13T13:35:56;22.80;99.90
35565;DHT22;21668;44.784;10.336;2022-10-13T13:39:01;22.90;99.90
35565;DHT22;21668;44.784;10.336;2022-10-13T13:42:05;23.00;99.90
35565;DHT22;21668;44.784;10.336;2022-10-13T13:45:15;22.90;99.90
35565;DHT22;21668;44.784;10.336;2022-10-13T13:48:19;22.80;99.90
35565;DHT22;21668;44.784;10.336;2022-10-13T13:51:29;22.90;99.90
35565;DHT22;21668;44.784;10.336;2022-10-13T13:54:34;22.90;99.90
35565;DHT22;21668;44.784;10.336;2022-10-13T13:57:41;22.70;99.90
35565;DHT22;21668;44.784;10.336;2022-10-13T14:00:45;22.70;99.90
35565;DHT22;21668;44.784;10.336;2022-10-13T14:03:55;22.60;99.90
35565;DHT22;21668;44.784;10.336;2022-10-13T14:07:05;22.40;99.90
35565;DHT22;21668;44.784;10.336;2022-10-13T14:10:14;22.40;99.90
35565;DHT22;21668;44.784;10.336;2022-10-13T14:13:20;22.30;99.90
35565;DHT22;21668;44.784;10.336;2022-10-13T14:16:25;22.30;99.90
35565;DHT22;21668;44.784;10.336;2022-10-13T14:19:31;22.30;99.90
35565;DHT22;21668;44.784;10.336;2022-10-13T14:22:44;22.30;99.90
35565;DHT22;21668;44.784;10.336;2022-10-13T14:25:53;22.40;99.90
35565;DHT22;21668;44.784;10.336;2022-10-13T14:28:59;22.30;99.90
35565;DHT22;21668;44.784;10.336;2022-10-13T14:32:04;22.40;99.90
35565;DHT22;21668;44.784;10.336;2022-10-13T14:35:09;22.30;99.90
35565;DHT22;21668;44.784;10.336;2022-10-13T14:38:13;22.30;99.90
35565;DHT22;21668;44.784;10.336;2022-10-13T14:41:18;22.20;99.90
35565;DHT22;21668;44.784;10.336;2022-10-13T14:44:22;22.20;99.90
35565;DHT22;21668;44.784;10.336;2022-10-13T14:47:27;22.00;99.90
35565;DHT22;21668;44.784;10.336;2022-10-13T14:50:31;21.90;99.90
35565;DHT22;21668;44.784;10.336;2022-10-13T14:53:37;21.80;99.90
35565;DHT22;21668;44.784;10.336;2022-10-13T14:56:42;21.80;99.90
35565;DHT22;21668;44.784;10.336;2022-10-13T14:59:47;21.70;99.90
35565;DHT22;21668;44.784;10.336;2022-10-13T15:02:51;21.70;99.90
35565;DHT22;21668;44.784;10.336;2022-10-13T15:05:57;21.70;99.90
35565;DHT22;21668;44.784;10.336;2022-10-13T15:09:07;21.60;99.90
35565;DHT22;21668;44.784;10.336;2022-10-13T15:12:12;21.50;99.90
35565;DHT22;21668;44.784;10.336;2022-10-13T15:15:16;21.50;99.90
35565;DHT22;21668;44.784;10.336;2022-10-13T15:18:20;21.40;99.90
35565;DHT22;21668;44.784;10.336;2022-10-13T15:21:24;21.40;99.90
35565;DHT22;21668;44.784;10.336;2022-10-13T15:24:29;21.30;99.90
35565;DHT22;21668;44.784;10.336;2022-10-13T15:27:38;21.20;99.90
35565;DHT22;21668;44.784;10.336;2022-10-13T15:30:42;21.10;99.90
35565;DHT22;21668;44.784;10.336;2022-10-13T15:33:49;21.00;99.90
35565;DHT22;21668;44.784;10.336;2022-10-13T15:36:54;21.00;99.90
35565;DHT22;21668;44.784;10.336;2022-10-13T15:39:59;20.90;99.90
35565;DHT22;21668;44.784;10.336;2022-10-13T15:43:03;20.80;99.90
35565;DHT22;21668;44.784;10.336;2022-10-13T15:46:14;20.80;99.90
35565;DHT22;21668;44.784;10.336;2022-10-13T15:49:24;20.70;99.90
35565;DHT22;21668;44.784;10.336;2022-10-13T15:52:29;20.70;99.90
35565;DHT22;21668;44.784;10.336;2022-10-13T15:55:32;20.50;99.90
35565;DHT22;21668;44.784;10.336;2022-10-13T15:58:37;20.50;99.90
35565;DHT22;21668;44.784;10.336;2022-10-13T16:01:41;20.40;99.90
35565;DHT22;21668;44.784;10.336;2022-10-13T16:04:45;20.40;99.90
35565;DHT22;21668;44.784;10.336;2022-10-13T16:07:50;20.30;99.90
35565;DHT22;21668;44.784;10.336;2022-10-13T16:10:54;20.20;99.90
35565;DHT22;21668;44.784;10.336;2022-10-13T16:13:58;20.20;99.90
35565;DHT22;21668;44.784;10.336;2022-10-13T16:17:03;20.10;99.90
35565;DHT22;21668;44.784;10.336;2022-10-13T16:20:09;20.00;99.90
35565;DHT22;21668;44.784;10.336;2022-10-13T16:23:13;19.90;99.90
35565;DHT22;21668;44.784;10.336;2022-10-13T16:26:17;19.80;99.90
35565;DHT22;21668;44.784;10.336;2022-10-13T16:29:21;19.70;99.90
35565;DHT22;21668;44.784;10.336;2022-10-13T16:32:25;19.60;99.90
35565;DHT22;21668;44.784;10.336;2022-10-13T16:35:31;19.50;99.90
35565;DHT22;21668;44.784;10.336;2022-10-13T16:38:37;19.40;99.90
35565;DHT22;21668;44.784;10.336;2022-10-13T16:41:41;19.30;99.90
35565;DHT22;21668;44.784;10.336;2022-10-13T16:44:44;19.20;99.90
35565;DHT22;21668;44.784;10.336;2022-10-13T16:47:51;19.10;99.90
35565;DHT22;21668;44.784;10.336;2022-10-13T16:50:55;19.00;99.90
35565;DHT22;21668;44.784;10.336;2022-10-13T16:54:01;18.90;99.90
35565;DHT22;21668;44.784;10.336;2022-10-13T16:57:05;18.80;99.90
35565;DHT22;21668;44.784;10.336;2022-10-13T17:00:15;18.70;99.90
35565;DHT22;21668;44.784;10.336;2022-10-13T17:03:19;18.60;99.90
35565;DHT22;21668;44.784;10.336;2022-10-13T17:06:27;18.60;99.90
35565;DHT22;21668;44.784;10.336;2022-10-13T17:09:31;18.50;99.90
35565;DHT22;21668;44.784;10.336;2022-10-13T17:12:36;18.40;99.90
35565;DHT22;21668;44.784;10.336;2022-10-13T17:15:48;18.40;99.90
35565;DHT22;21668;44.784;10.336;2022-10-13T17:18:53;18.30;99.90
35565;DHT22;21668;44.784;10.336;2022-10-13T17:21:57;18.30;99.90
35565;DHT22;21668;44.784;10.336;2022-10-13T17:25:01;18.20;99.90
35565;DHT22;21668;44.784;10.336;2022-10-13T17:28:05;18.10;99.90
35565;DHT22;21668;44.784;10.336;2022-10-13T17:31:16;18.00;99.90
35565;DHT22;21668;44.784;10.336;2022-10-13T17:34:20;17.90;99.90
35565;DHT22;21668;44.784;10.336;2022-10-13T17:37:25;17.90;99.90
35565;DHT22;21668;44.784;10.336;2022-10-13T17:40:32;17.80;99.90
35565;DHT22;21668;44.784;10.336;2022-10-13T17:43:37;17.80;99.90
35565;DHT22;21668;44.784;10.336;2022-10-13T17:46:42;17.80;99.90
35565;DHT22;21668;44.784;10.336;2022-10-13T17:49:46;17.70;99.90
35565;DHT22;21668;44.784;10.336;2022-10-13T17:52:58;17.70;99.90
35565;DHT22;21668;44.784;10.336;2022-10-13T17:56:05;17.60;99.90
35565;DHT22;21668;44.784;10.336;2022-10-13T17:59:15;17.60;99.90
35565;DHT22;21668;44.784;10.336;2022-10-13T18:02:19;17.50;99.90
35565;DHT22;21668;44.784;10.336;2022-10-13T18:05:33;17.50;99.90
35565;DHT22;21668;44.784;10.336;2022-10-13T18:08:52;17.50;99.90
35565;DHT22;21668;44.784;10.336;2022-10-13T18:22:34;17.30;99.90
35565;DHT22;21668;44.784;10.336;2022-10-13T18:26:29;17.20;99.90
35565;DHT22;21668;44.784;10.336;2022-10-13T18:33:25;17.00;99.90
35565;DHT22;21668;44.784;10.336;2022-10-13T18:37:13;17.00;99.90
35565;DHT22;21668;44.784;10.336;2022-10-13T18:40:25;16.90;99.90
35565;DHT22;21668;44.784;10.336;2022-10-13T18:43:35;16.80;99.90
35565;DHT22;21668;44.784;10.336;2022-10-13T18:53:01;16.80;99.90
35565;DHT22;21668;44.784;10.336;2022-10-13T18:56:46;16.70;99.90
35565;DHT22;21668;44.784;10.336;2022-10-13T19:00:04;16.70;99.90
35565;DHT22;21668;44.784;10.336;2022-10-13T19:03:39;16.60;99.90
35565;DHT22;21668;44.784;10.336;2022-10-13T19:07:00;16.60;99.90
35565;DHT22;21668;44.784;10.336;2022-10-13T19:10:13;16.60;99.90
35565;DHT22;21668;44.784;10.336;2022-10-13T19:13:22;16.50;99.90
35565;DHT22;21668;44.784;10.336;2022-10-13T19:16:36;16.40;99.90
35565;DHT22;21668;44.784;10.336;2022-10-13T19:19:41;16.50;99.90
35565;DHT22;21668;44.784;10.336;2022-10-13T19:22:45;16.50;99.90
35565;DHT22;21668;44.784;10.336;2022-10-13T19:25:55;16.40;99.90
35565;DHT22;21668;44.784;10.336;2022-10-13T19:29:21;16.40;99.90
35565;DHT22;21668;44.784;10.336;2022-10-13T19:32:32;16.40;99.90
35565;DHT22;21668;44.784;10.336;2022-10-13T19:35:48;16.40;99.90
35565;DHT22;21668;44.784;10.336;2022-10-13T19:42:35;16.30;99.90
35565;DHT22;21668;44.784;10.336;2022-10-13T19:46:05;16.30;99.90
35565;DHT22;21668;44.784;10.336;2022-10-13T19:49:22;16.30;99.90
35565;DHT22;21668;44.784;10.336;2022-10-13T19:52:35;16.30;99.90
35565;DHT22;21668;44.784;10.336;2022-10-13T19:55:49;16.30;99.90
35565;DHT22;21668;44.784;10.336;2022-10-13T19:58:54;16.20;99.90
35565;DHT22;21668;44.784;10.336;2022-10-13T20:02:40;16.40;99.90
35565;DHT22;21668;44.784;10.336;2022-10-13T20:06:05;16.20;99.90
35565;DHT22;21668;44.784;10.336;2022-10-13T20:09:53;16.10;99.90
35565;DHT22;21668;44.784;10.336;2022-10-13T20:13:10;16.00;99.90
